sensor_id;sensor_type;location;lat;lon;timestamp;pressure;altitude;pressure_sealevel;temperature;humidity
67517;BME280;68821;59.134;37.894;2024-03-23T00:53:12;98405.28;;;5.31;65.31
67517;BME280;68821;59.134;37.894;2024-03-23T00:55:38;98399.34;;;5.27;65.35
67517;BME280;68821;59.134;37.894;2024-03-23T00:58:04;98392.56;;;5.28;65.54
67517;BME280;68821;59.134;37.894;2024-03-23T01:00:30;98380.63;;;5.27;65.21
67517;BME280;68821;59.134;37.894;2024-03-23T01:02:57;98390.84;;;5.28;65.11
67517;BME280;68821;59.134;37.894;2024-03-23T01:05:23;98373.00;;;5.27;65.21
67517;BME280;68821;59.134;37.894;2024-03-23T01:07:49;98373.03;;;5.30;66.17
67517;BME280;68821;59.134;37.894;2024-03-23T01:10:16;98379.00;;;5.33;65.55
67517;BME280;68821;59.134;37.894;2024-03-23T01:12:42;98366.25;;;5.33;65.77
67517;BME280;68821;59.134;37.894;2024-03-23T01:15:09;98362.84;;;5.31;65.53
67517;BME280;68821;59.134;37.894;2024-03-23T01:17:35;98356.03;;;5.27;65.34
67517;BME280;68821;59.134;37.894;2024-03-23T01:20:01;98356.03;;;5.29;66.26
67517;BME280;68821;59.134;37.894;2024-03-23T01:22:28;98349.22;;;5.24;65.59
67517;BME280;68821;59.134;37.894;2024-03-23T01:24:54;98353.50;;;5.27;66.27
67517;BME280;68821;59.134;37.894;2024-03-23T01:27:20;98338.22;;;5.27;66.75
67517;BME280;68821;59.134;37.894;2024-03-23T01:29:46;98339.03;;;5.24;66.24
67517;BME280;68821;59.134;37.894;2024-03-23T01:32:13;98328.00;;;5.24;65.96
67517;BME280;68821;59.134;37.894;2024-03-23T01:34:39;98326.28;;;5.20;65.84
67517;BME280;68821;59.134;37.894;2024-03-23T01:37:06;98325.41;;;5.18;66.89
67517;BME280;68821;59.134;37.894;2024-03-23T01:39:32;98317.78;;;5.15;66.23
67517;BME280;68821;59.134;37.894;2024-03-23T01:41:58;98292.28;;;5.12;66.82
67517;BME280;68821;59.134;37.894;2024-03-23T01:44:24;98287.22;;;5.19;66.16
67517;BME280;68821;59.134;37.894;2024-03-23T01:46:51;98296.56;;;5.22;66.34
67517;BME280;68821;59.134;37.894;2024-03-23T01:49:17;98288.94;;;5.19;66.99
67517;BME280;68821;59.134;37.894;2024-03-23T01:51:44;98284.66;;;5.18;66.49
67517;BME280;68821;59.134;37.894;2024-03-23T01:54:11;98274.47;;;5.18;66.68
67517;BME280;68821;59.134;37.894;2024-03-23T01:56:37;98273.63;;;5.17;66.84
67517;BME280;68821;59.134;37.894;2024-03-23T01:59:04;98269.38;;;5.13;66.56
67517;BME280;68821;59.134;37.894;2024-03-23T02:01:32;98277.03;;;5.15;66.77
67517;BME280;68821;59.134;37.894;2024-03-23T02:03:58;98267.66;;;5.11;67.17
67517;BME280;68821;59.134;37.894;2024-03-23T02:06:25;98258.28;;;5.08;67.35
67517;BME280;68821;59.134;37.894;2024-03-23T02:08:51;98264.25;;;5.10;67.69
67517;BME280;68821;59.134;37.894;2024-03-23T02:11:17;98256.63;;;5.09;67.15
67517;BME280;68821;59.134;37.894;2024-03-23T02:13:44;98252.34;;;5.06;67.16
67517;BME280;68821;59.134;37.894;2024-03-23T02:16:10;98247.22;;;5.01;66.99
67517;BME280;68821;59.134;37.894;2024-03-23T02:18:37;98242.13;;;5.00;66.96
67517;BME280;68821;59.134;37.894;2024-03-23T02:21:03;98230.25;;;4.99;67.65
67517;BME280;68821;59.134;37.894;2024-03-23T02:23:29;98221.75;;;5.01;67.35
67517;BME280;68821;59.134;37.894;2024-03-23T02:25:56;98226.88;;;4.98;67.37
67517;BME280;68821;59.134;37.894;2024-03-23T02:28:22;98212.41;;;4.96;67.55
67517;BME280;68821;59.134;37.894;2024-03-23T02:30:49;98203.06;;;4.90;67.53
67517;BME280;68821;59.134;37.894;2024-03-23T02:33:16;98208.16;;;4.95;67.12
67517;BME280;68821;59.134;37.894;2024-03-23T02:35:43;98206.47;;;4.92;68.02
67517;BME280;68821;59.134;37.894;2024-03-23T02:38:09;98203.06;;;4.98;67.66
67517;BME280;68821;59.134;37.894;2024-03-23T02:40:36;98193.75;;;4.97;67.10
67517;BME280;68821;59.134;37.894;2024-03-23T02:43:03;98197.13;;;4.96;67.14
67517;BME280;68821;59.134;37.894;2024-03-23T02:45:30;98201.38;;;4.95;67.84
67517;BME280;68821;59.134;37.894;2024-03-23T02:47:56;98192.88;;;4.95;67.40
67517;BME280;68821;59.134;37.894;2024-03-23T02:50:23;98191.19;;;4.97;67.21
67517;BME280;68821;59.134;37.894;2024-03-23T02:52:49;98192.88;;;4.93;68.01
67517;BME280;68821;59.134;37.894;2024-03-23T02:55:15;98175.06;;;4.93;68.00
67517;BME280;68821;59.134;37.894;2024-03-23T02:57:42;98179.31;;;4.96;67.23
67517;BME280;68821;59.134;37.894;2024-03-23T03:00:08;98171.63;;;4.90;67.70
67517;BME280;68821;59.134;37.894;2024-03-23T03:02:35;98170.00;;;4.96;68.09
67517;BME280;68821;59.134;37.894;2024-03-23T03:05:02;98147.06;;;4.96;67.70
67517;BME280;68821;59.134;37.894;2024-03-23T03:07:28;98157.25;;;4.98;68.17
67517;BME280;68821;59.134;37.894;2024-03-23T03:09:54;98152.16;;;4.95;67.65
67517;BME280;68821;59.134;37.894;2024-03-23T03:12:20;98156.38;;;4.96;68.31
67517;BME280;68821;59.134;37.894;2024-03-23T03:14:47;98146.19;;;4.96;68.11
67517;BME280;68821;59.134;37.894;2024-03-23T03:17:14;98136.88;;;4.95;67.83
67517;BME280;68821;59.134;37.894;2024-03-23T03:19:40;98124.97;;;4.94;68.22
67517;BME280;68821;59.134;37.894;2024-03-23T03:22:07;98130.09;;;4.92;67.97
67517;BME280;68821;59.134;37.894;2024-03-23T03:24:33;98131.78;;;4.89;68.55
67517;BME280;68821;59.134;37.894;2024-03-23T03:26:59;98109.69;;;4.80;68.13
67517;BME280;68821;59.134;37.894;2024-03-23T03:29:25;98116.47;;;4.81;68.90
67517;BME280;68821;59.134;37.894;2024-03-23T03:31:51;98118.16;;;4.83;68.89
67517;BME280;68821;59.134;37.894;2024-03-23T03:34:18;98112.22;;;4.80;68.34
67517;BME280;68821;59.134;37.894;2024-03-23T03:36:44;98104.59;;;4.78;68.67
67517;BME280;68821;59.134;37.894;2024-03-23T03:39:10;98108.81;;;4.79;69.07
67517;BME280;68821;59.134;37.894;2024-03-23T03:41:36;98104.59;;;4.80;68.57
67517;BME280;68821;59.134;37.894;2024-03-23T03:44:03;98099.50;;;4.78;69.25
67517;BME280;68821;59.134;37.894;2024-03-23T03:46:29;98099.47;;;4.77;68.66
67517;BME280;68821;59.134;37.894;2024-03-23T03:48:55;98079.09;;;4.69;69.31
67517;BME280;68821;59.134;37.894;2024-03-23T03:51:22;98088.44;;;4.73;69.01
67517;BME280;68821;59.134;37.894;2024-03-23T03:53:48;98082.50;;;4.70;69.45
67517;BME280;68821;59.134;37.894;2024-03-23T03:56:14;98088.44;;;4.69;69.58
67517;BME280;68821;59.134;37.894;2024-03-23T03:58:40;98087.59;;;4.70;69.77
67517;BME280;68821;59.134;37.894;2024-03-23T04:01:07;98079.09;;;4.71;69.64
67517;BME280;68821;59.134;37.894;2024-03-23T04:03:33;98083.34;;;4.72;70.03
67517;BME280;68821;59.134;37.894;2024-03-23T04:05:59;98084.19;;;4.72;69.86
67517;BME280;68821;59.134;37.894;2024-03-23T04:08:26;98069.78;;;4.68;69.73
67517;BME280;68821;59.134;37.894;2024-03-23T04:10:52;98069.75;;;4.67;69.79
67517;BME280;68821;59.134;37.894;2024-03-23T04:13:18;98067.22;;;4.67;69.72
67517;BME280;68821;59.134;37.894;2024-03-23T04:15:44;98062.97;;;4.67;70.46
67517;BME280;68821;59.134;37.894;2024-03-23T04:18:11;98064.66;;;4.65;70.64
67517;BME280;68821;59.134;37.894;2024-03-23T04:20:37;98057.88;;;4.62;69.80
67517;BME280;68821;59.134;37.894;2024-03-23T04:23:03;98052.78;;;4.62;70.35
67517;BME280;68821;59.134;37.894;2024-03-23T04:25:29;98028.16;;;4.58;70.17
67517;BME280;68821;59.134;37.894;2024-03-23T04:27:56;98041.75;;;4.67;70.44
67517;BME280;68821;59.134;37.894;2024-03-23T04:30:22;98038.38;;;4.71;70.66
67517;BME280;68821;59.134;37.894;2024-03-23T04:32:51;98039.25;;;4.76;70.14
67517;BME280;68821;59.134;37.894;2024-03-23T04:35:17;98030.78;;;4.78;69.93
67517;BME280;68821;59.134;37.894;2024-03-23T04:37:46;98026.53;;;4.82;70.44
67517;BME280;68821;59.134;37.894;2024-03-23T04:40:13;98019.72;;;4.86;70.41
67517;BME280;68821;59.134;37.894;2024-03-23T04:42:39;98017.22;;;4.84;70.68
67517;BME280;68821;59.134;37.894;2024-03-23T04:45:06;98015.50;;;4.80;70.53
67517;BME280;68821;59.134;37.894;2024-03-23T04:47:32;98007.03;;;4.78;71.07
67517;BME280;68821;59.134;37.894;2024-03-23T04:49:59;98004.47;;;4.76;70.75
67517;BME280;68821;59.134;37.894;2024-03-23T04:52:25;97997.66;;;4.75;71.15
67517;BME280;68821;59.134;37.894;2024-03-23T04:54:51;97995.13;;;4.75;71.31
67517;BME280;68821;59.134;37.894;2024-03-23T04:57:18;97988.34;;;4.74;71.24
67517;BME280;68821;59.134;37.894;2024-03-23T04:59:44;97993.41;;;4.77;70.92
67517;BME280;68821;59.134;37.894;2024-03-23T05:02:10;97988.34;;;4.80;71.16
67517;BME280;68821;59.134;37.894;2024-03-23T05:04:36;97987.50;;;4.81;70.75
67517;BME280;68821;59.134;37.894;2024-03-23T05:07:03;97985.81;;;4.87;70.89
67517;BME280;68821;59.134;37.894;2024-03-23T05:09:30;97984.97;;;4.84;71.19
67517;BME280;68821;59.134;37.894;2024-03-23T05:11:57;97982.41;;;4.84;70.74
67517;BME280;68821;59.134;37.894;2024-03-23T05:14:23;97969.66;;;4.88;71.41
67517;BME280;68821;59.134;37.894;2024-03-23T05:16:49;97963.75;;;4.92;70.86
67517;BME280;68821;59.134;37.894;2024-03-23T05:19:15;97963.75;;;4.93;70.40
67517;BME280;68821;59.134;37.894;2024-03-23T05:21:41;97959.50;;;4.92;71.17
67517;BME280;68821;59.134;37.894;2024-03-23T05:24:08;97957.78;;;4.90;70.30
67517;BME280;68821;59.134;37.894;2024-03-23T05:26:34;97951.88;;;4.89;71.09
67517;BME280;68821;59.134;37.894;2024-03-23T05:29:02;97949.34;;;4.86;70.82
67517;BME280;68821;59.134;37.894;2024-03-23T05:31:30;97939.97;;;4.83;71.22
67517;BME280;68821;59.134;37.894;2024-03-23T05:33:56;97935.75;;;4.82;71.40
67517;BME280;68821;59.134;37.894;2024-03-23T05:36:23;97929.81;;;4.79;71.24
67517;BME280;68821;59.134;37.894;2024-03-23T05:38:52;97929.78;;;4.71;71.21
67517;BME280;68821;59.134;37.894;2024-03-23T05:41:18;97928.09;;;4.66;71.27
67517;BME280;68821;59.134;37.894;2024-03-23T05:43:44;97930.63;;;4.62;71.50
67517;BME280;68821;59.134;37.894;2024-03-23T05:46:11;97923.84;;;4.63;71.68
67517;BME280;68821;59.134;37.894;2024-03-23T05:48:38;97917.06;;;4.62;71.01
67517;BME280;68821;59.134;37.894;2024-03-23T05:51:04;97923.00;;;4.58;71.40
67517;BME280;68821;59.134;37.894;2024-03-23T05:53:31;97909.44;;;4.54;71.52
67517;BME280;68821;59.134;37.894;2024-03-23T05:56:02;97900.09;;;4.49;71.74
67517;BME280;68821;59.134;37.894;2024-03-23T05:58:29;97908.59;;;4.55;71.70
67517;BME280;68821;59.134;37.894;2024-03-23T06:01:00;97890.75;;;4.52;71.30
67517;BME280;68821;59.134;37.894;2024-03-23T06:03:28;97900.09;;;4.55;71.55
67517;BME280;68821;59.134;37.894;2024-03-23T06:05:55;97883.16;;;4.55;70.92
67517;BME280;68821;59.134;37.894;2024-03-23T06:08:21;97896.72;;;4.56;71.24
67517;BME280;68821;59.134;37.894;2024-03-23T06:10:48;97904.34;;;4.56;71.65
67517;BME280;68821;59.134;37.894;2024-03-23T06:13:14;97880.59;;;4.48;71.64
67517;BME280;68821;59.134;37.894;2024-03-23T06:15:40;97887.38;;;4.53;71.06
67517;BME280;68821;59.134;37.894;2024-03-23T06:18:07;97877.22;;;4.53;71.26
67517;BME280;68821;59.134;37.894;2024-03-23T06:20:34;97882.28;;;4.50;71.88
67517;BME280;68821;59.134;37.894;2024-03-23T06:23:01;97878.91;;;4.50;71.75
67517;BME280;68821;59.134;37.894;2024-03-23T06:25:30;97874.66;;;4.50;71.30
67517;BME280;68821;59.134;37.894;2024-03-23T06:27:56;97857.69;;;4.46;71.67
67517;BME280;68821;59.134;37.894;2024-03-23T06:30:24;97869.56;;;4.50;71.50
67517;BME280;68821;59.134;37.894;2024-03-23T06:32:50;97860.25;;;4.52;71.03
67517;BME280;68821;59.134;37.894;2024-03-23T06:35:16;97853.47;;;4.50;71.66
67517;BME280;68821;59.134;37.894;2024-03-23T06:37:42;97855.13;;;4.44;71.46
67517;BME280;68821;59.134;37.894;2024-03-23T06:40:08;97850.06;;;4.46;71.79
67517;BME280;68821;59.134;37.894;2024-03-23T06:42:36;97840.72;;;4.53;71.87
67517;BME280;68821;59.134;37.894;2024-03-23T06:45:03;97844.13;;;4.64;71.62
67517;BME280;68821;59.134;37.894;2024-03-23T06:47:30;97834.81;;;4.68;71.51
67517;BME280;68821;59.134;37.894;2024-03-23T06:49:58;97831.41;;;4.69;71.48
67517;BME280;68821;59.134;37.894;2024-03-23T06:52:25;97827.16;;;4.71;71.63
67517;BME280;68821;59.134;37.894;2024-03-23T06:54:51;97828.84;;;4.70;71.32
67517;BME280;68821;59.134;37.894;2024-03-23T06:57:17;97825.47;;;4.70;71.44
67517;BME280;68821;59.134;37.894;2024-03-23T06:59:43;97822.06;;;4.75;71.87
67517;BME280;68821;59.134;37.894;2024-03-23T07:02:09;97816.97;;;4.77;71.93
67517;BME280;68821;59.134;37.894;2024-03-23T07:04:38;97808.47;;;4.75;71.77
67517;BME280;68821;59.134;37.894;2024-03-23T07:07:05;97805.94;;;4.75;71.57
67517;BME280;68821;59.134;37.894;2024-03-23T07:09:31;97807.63;;;4.77;72.12
67517;BME280;68821;59.134;37.894;2024-03-23T07:11:57;97801.72;;;4.80;71.50
67517;BME280;68821;59.134;37.894;2024-03-23T07:14:24;97792.34;;;4.83;71.43
67517;BME280;68821;59.134;37.894;2024-03-23T07:16:50;97794.91;;;4.88;72.04
67517;BME280;68821;59.134;37.894;2024-03-23T07:19:17;97798.25;;;4.92;71.49
67517;BME280;68821;59.134;37.894;2024-03-23T07:21:44;97787.25;;;4.94;71.98
67517;BME280;68821;59.134;37.894;2024-03-23T07:24:11;97788.94;;;4.98;71.93
67517;BME280;68821;59.134;37.894;2024-03-23T07:26:37;97781.31;;;4.98;71.76
67517;BME280;68821;59.134;37.894;2024-03-23T07:29:04;97777.88;;;4.98;71.83
67517;BME280;68821;59.134;37.894;2024-03-23T07:31:31;97774.50;;;4.97;71.50
67517;BME280;68821;59.134;37.894;2024-03-23T07:33:57;97771.97;;;5.00;71.93
67517;BME280;68821;59.134;37.894;2024-03-23T07:36:23;97769.41;;;4.97;71.28
67517;BME280;68821;59.134;37.894;2024-03-23T07:38:53;97760.09;;;4.95;71.29
67517;BME280;68821;59.134;37.894;2024-03-23T07:41:20;97759.25;;;4.94;71.34
67517;BME280;68821;59.134;37.894;2024-03-23T07:43:47;97755.00;;;4.89;71.64
67517;BME280;68821;59.134;37.894;2024-03-23T07:46:14;97752.47;;;4.89;72.24
67517;BME280;68821;59.134;37.894;2024-03-23T07:48:41;97740.56;;;4.88;71.64
67517;BME280;68821;59.134;37.894;2024-03-23T07:51:16;97741.47;;;4.82;72.04
67517;BME280;68821;59.134;37.894;2024-03-23T07:53:44;97744.84;;;4.81;72.17
67517;BME280;68821;59.134;37.894;2024-03-23T07:56:15;97743.16;;;4.75;71.53
67517;BME280;68821;59.134;37.894;2024-03-23T07:58:42;97751.66;;;4.80;71.70
67517;BME280;68821;59.134;37.894;2024-03-23T08:01:11;97749.91;;;4.86;72.14
67517;BME280;68821;59.134;37.894;2024-03-23T08:03:38;97745.66;;;4.88;71.59
67517;BME280;68821;59.134;37.894;2024-03-23T08:06:12;97755.84;;;4.91;71.96
67517;BME280;68821;59.134;37.894;2024-03-23T08:08:39;97745.66;;;4.89;72.04
67517;BME280;68821;59.134;37.894;2024-03-23T08:11:06;97747.34;;;4.92;71.74
67517;BME280;68821;59.134;37.894;2024-03-23T08:13:34;97736.34;;;4.87;72.01
67517;BME280;68821;59.134;37.894;2024-03-23T08:16:02;97736.34;;;4.85;71.82
67517;BME280;68821;59.134;37.894;2024-03-23T08:18:29;97735.50;;;4.86;72.06
67517;BME280;68821;59.134;37.894;2024-03-23T08:21:03;97735.50;;;4.89;71.65
67517;BME280;68821;59.134;37.894;2024-03-23T08:23:31;97735.50;;;4.89;71.89
67517;BME280;68821;59.134;37.894;2024-03-23T08:26:19;97729.56;;;4.86;71.88
67517;BME280;68821;59.134;37.894;2024-03-23T08:28:46;97734.66;;;4.82;71.85
67517;BME280;68821;59.134;37.894;2024-03-23T08:31:13;97718.53;;;4.77;71.98
67517;BME280;68821;59.134;37.894;2024-03-23T08:33:40;97725.34;;;4.78;71.90
67517;BME280;68821;59.134;37.894;2024-03-23T08:36:09;97719.41;;;4.81;71.47
67517;BME280;68821;59.134;37.894;2024-03-23T08:38:38;97713.44;;;4.85;72.04
67517;BME280;68821;59.134;37.894;2024-03-23T08:41:05;97706.69;;;4.84;72.39
67517;BME280;68821;59.134;37.894;2024-03-23T08:43:35;97706.66;;;4.79;72.31
67517;BME280;68821;59.134;37.894;2024-03-23T08:46:09;97710.91;;;4.88;71.98
67517;BME280;68821;59.134;37.894;2024-03-23T08:48:36;97704.94;;;4.91;72.05
67517;BME280;68821;59.134;37.894;2024-03-23T08:51:03;97708.31;;;4.99;72.81
67517;BME280;68821;59.134;37.894;2024-03-23T08:53:30;97705.72;;;5.07;72.49
67517;BME280;68821;59.134;37.894;2024-03-23T08:55:58;97710.78;;;5.11;71.96
67517;BME280;68821;59.134;37.894;2024-03-23T08:58:25;97704.84;;;5.14;72.35
67517;BME280;68821;59.134;37.894;2024-03-23T09:00:52;97694.63;;;5.20;72.20
67517;BME280;68821;59.134;37.894;2024-03-23T09:03:18;97690.34;;;5.31;72.31
67517;BME280;68821;59.134;37.894;2024-03-23T09:05:45;97678.44;;;5.32;71.79
67517;BME280;68821;59.134;37.894;2024-03-23T09:08:11;97679.28;;;5.34;71.88
67517;BME280;68821;59.134;37.894;2024-03-23T09:10:41;97694.53;;;5.41;72.62
67517;BME280;68821;59.134;37.894;2024-03-23T09:13:07;97685.13;;;5.47;72.22
67517;BME280;68821;59.134;37.894;2024-03-23T09:15:45;97678.31;;;5.50;72.91
67517;BME280;68821;59.134;37.894;2024-03-23T09:18:11;97680.00;;;5.54;72.56
67517;BME280;68821;59.134;37.894;2024-03-23T09:20:38;97679.94;;;5.60;72.04
67517;BME280;68821;59.134;37.894;2024-03-23T09:23:04;97676.53;;;5.64;72.07
67517;BME280;68821;59.134;37.894;2024-03-23T09:25:39;97674.81;;;5.67;72.44
67517;BME280;68821;59.134;37.894;2024-03-23T09:28:06;97671.38;;;5.71;71.54
67517;BME280;68821;59.134;37.894;2024-03-23T09:30:35;97673.03;;;5.76;72.14
67517;BME280;68821;59.134;37.894;2024-03-23T09:33:02;97668.78;;;5.74;71.56
67517;BME280;68821;59.134;37.894;2024-03-23T09:35:29;97666.28;;;5.68;72.02
67517;BME280;68821;59.134;37.894;2024-03-23T09:37:55;97679.00;;;5.74;72.16
67517;BME280;68821;59.134;37.894;2024-03-23T09:40:21;97673.88;;;5.78;72.15
67517;BME280;68821;59.134;37.894;2024-03-23T09:42:51;97678.16;;;5.75;72.86
67517;BME280;68821;59.134;37.894;2024-03-23T09:45:21;97681.56;;;5.71;72.20
67517;BME280;68821;59.134;37.894;2024-03-23T09:47:48;97672.25;;;5.68;72.17
67517;BME280;68821;59.134;37.894;2024-03-23T09:50:16;97680.75;;;5.70;72.39
67517;BME280;68821;59.134;37.894;2024-03-23T09:52:43;97668.03;;;5.61;72.91
67517;BME280;68821;59.134;37.894;2024-03-23T09:55:11;97673.94;;;5.72;73.30
67517;BME280;68821;59.134;37.894;2024-03-23T09:57:38;97671.28;;;5.80;72.62
67517;BME280;68821;59.134;37.894;2024-03-23T10:00:04;97672.06;;;5.88;72.73
67517;BME280;68821;59.134;37.894;2024-03-23T10:02:31;97672.94;;;5.95;72.71
67517;BME280;68821;59.134;37.894;2024-03-23T10:04:58;97672.88;;;5.99;72.23
67517;BME280;68821;59.134;37.894;2024-03-23T10:07:25;97674.50;;;6.10;72.10
67517;BME280;68821;59.134;37.894;2024-03-23T10:09:54;97677.84;;;6.15;72.85
67517;BME280;68821;59.134;37.894;2024-03-23T10:12:21;97674.44;;;6.14;72.21
67517;BME280;68821;59.134;37.894;2024-03-23T10:14:47;97671.88;;;6.16;72.62
67517;BME280;68821;59.134;37.894;2024-03-23T10:19:41;97673.44;;;6.31;72.32
67517;BME280;68821;59.134;37.894;2024-03-23T10:22:09;97670.88;;;6.32;71.83
67517;BME280;68821;59.134;37.894;2024-03-23T10:24:36;97665.00;;;6.26;72.30
67517;BME280;68821;59.134;37.894;2024-03-23T10:27:02;97671.78;;;6.25;72.18
67517;BME280;68821;59.134;37.894;2024-03-23T10:29:28;97671.78;;;6.27;71.81
67517;BME280;68821;59.134;37.894;2024-03-23T10:32:07;97675.91;;;6.38;72.98
67517;BME280;68821;59.134;37.894;2024-03-23T10:34:35;97666.34;;;6.59;72.50
67517;BME280;68821;59.134;37.894;2024-03-23T10:37:02;97665.00;;;7.01;72.83
67517;BME280;68821;59.134;37.894;2024-03-23T10:39:39;97668.88;;;7.29;71.83
67517;BME280;68821;59.134;37.894;2024-03-23T10:42:08;97661.16;;;7.32;71.49
67517;BME280;68821;59.134;37.894;2024-03-23T10:44:34;97661.13;;;7.35;71.21
67517;BME280;68821;59.134;37.894;2024-03-23T10:47:02;97662.97;;;7.27;71.51
67517;BME280;68821;59.134;37.894;2024-03-23T10:49:29;97661.38;;;7.18;71.49
67517;BME280;68821;59.134;37.894;2024-03-23T10:52:03;97664.72;;;7.21;71.85
67517;BME280;68821;59.134;37.894;2024-03-23T10:54:31;97667.06;;;7.37;71.59
67517;BME280;68821;59.134;37.894;2024-03-23T10:57:20;97666.97;;;7.43;71.32
67517;BME280;68821;59.134;37.894;2024-03-23T10:59:47;97658.50;;;7.41;71.13
67517;BME280;68821;59.134;37.894;2024-03-23T11:02:21;97661.16;;;7.33;70.96
67517;BME280;68821;59.134;37.894;2024-03-23T11:04:48;97660.41;;;7.25;71.12
67517;BME280;68821;59.134;37.894;2024-03-23T11:09:50;97651.84;;;7.29;70.88
67517;BME280;68821;59.134;37.894;2024-03-23T11:14:51;97658.75;;;7.21;70.97
67517;BME280;68821;59.134;37.894;2024-03-23T11:17:22;97666.28;;;7.32;71.16
67517;BME280;68821;59.134;37.894;2024-03-23T11:22:39;97672.28;;;7.28;70.83
67517;BME280;68821;59.134;37.894;2024-03-23T11:25:15;97666.44;;;7.21;70.46
67517;BME280;68821;59.134;37.894;2024-03-23T11:27:45;97660.56;;;7.16;70.89
67517;BME280;68821;59.134;37.894;2024-03-23T11:30:15;97660.25;;;7.36;71.10
67517;BME280;68821;59.134;37.894;2024-03-23T11:32:43;97657.72;;;7.92;71.02
67517;BME280;68821;59.134;37.894;2024-03-23T11:35:09;97649.28;;;9.22;70.71
67517;BME280;68821;59.134;37.894;2024-03-23T11:37:36;97638.09;;;10.65;69.15
67517;BME280;68821;59.134;37.894;2024-03-23T11:40:18;97640.38;;;12.15;65.80
67517;BME280;68821;59.134;37.894;2024-03-23T11:42:45;97633.88;;;13.24;64.37
67517;BME280;68821;59.134;37.894;2024-03-23T11:45:11;97640.13;;;14.48;62.28
67517;BME280;68821;59.134;37.894;2024-03-23T11:47:38;97629.03;;;15.42;59.73
67517;BME280;68821;59.134;37.894;2024-03-23T11:50:04;97629.78;;;15.44;58.28
67517;BME280;68821;59.134;37.894;2024-03-23T11:52:31;97639.09;;;14.92;57.13
67517;BME280;68821;59.134;37.894;2024-03-23T11:55:05;97635.22;;;14.01;57.62
67517;BME280;68821;59.134;37.894;2024-03-23T11:57:33;97631.41;;;12.99;58.41
67517;BME280;68821;59.134;37.894;2024-03-23T12:00:00;97641.88;;;12.22;59.18
67517;BME280;68821;59.134;37.894;2024-03-23T12:02:26;97643.75;;;11.64;60.14
67517;BME280;68821;59.134;37.894;2024-03-23T12:04:52;97652.88;;;11.18;60.47
67517;BME280;68821;59.134;37.894;2024-03-23T12:07:20;97649.88;;;10.72;60.53
67517;BME280;68821;59.134;37.894;2024-03-23T12:10:03;97662.50;;;10.14;60.88
67517;BME280;68821;59.134;37.894;2024-03-23T12:12:29;97643.00;;;9.73;62.02
67517;BME280;68821;59.134;37.894;2024-03-23T12:15:06;97655.63;;;9.44;62.24
67517;BME280;68821;59.134;37.894;2024-03-23T12:17:34;97651.69;;;9.30;63.11
67517;BME280;68821;59.134;37.894;2024-03-23T12:20:01;97648.56;;;9.17;63.10
67517;BME280;68821;59.134;37.894;2024-03-23T12:22:28;97650.34;;;9.12;63.45
67517;BME280;68821;59.134;37.894;2024-03-23T12:24:55;97647.91;;;9.07;62.78
67517;BME280;68821;59.134;37.894;2024-03-23T12:27:22;97641.97;;;9.05;62.99
67517;BME280;68821;59.134;37.894;2024-03-23T12:29:49;97654.81;;;9.02;63.04
67517;BME280;68821;59.134;37.894;2024-03-23T12:32:15;97651.00;;;8.81;62.90
67517;BME280;68821;59.134;37.894;2024-03-23T12:34:42;97648.69;;;8.69;63.24
67517;BME280;68821;59.134;37.894;2024-03-23T12:37:08;97655.31;;;8.79;64.30
67517;BME280;68821;59.134;37.894;2024-03-23T12:39:38;97653.69;;;9.15;63.42
67517;BME280;68821;59.134;37.894;2024-03-23T12:42:05;97660.03;;;9.39;62.59
67517;BME280;68821;59.134;37.894;2024-03-23T12:44:31;97649.16;;;9.26;62.69
67517;BME280;68821;59.134;37.894;2024-03-23T12:46:57;97657.38;;;9.03;62.84
67517;BME280;68821;59.134;37.894;2024-03-23T12:49:23;97654.38;;;8.83;63.24
67517;BME280;68821;59.134;37.894;2024-03-23T12:51:54;97652.81;;;8.76;63.80
67517;BME280;68821;59.134;37.894;2024-03-23T12:54:22;97651.78;;;8.84;63.54
67517;BME280;68821;59.134;37.894;2024-03-23T12:56:48;97653.31;;;8.93;63.38
67517;BME280;68821;59.134;37.894;2024-03-23T12:59:15;97655.16;;;8.86;63.53
67517;BME280;68821;59.134;37.894;2024-03-23T13:01:42;97664.03;;;8.70;63.52
67517;BME280;68821;59.134;37.894;2024-03-23T13:04:12;97652.44;;;8.51;63.08
67517;BME280;68821;59.134;37.894;2024-03-23T13:06:38;97663.84;;;8.31;63.52
67517;BME280;68821;59.134;37.894;2024-03-23T13:09:06;97670.91;;;8.18;64.20
67517;BME280;68821;59.134;37.894;2024-03-23T13:11:32;97677.00;;;8.10;64.26
67517;BME280;68821;59.134;37.894;2024-03-23T13:13:58;97683.03;;;8.07;64.98
67517;BME280;68821;59.134;37.894;2024-03-23T13:16:24;97675.56;;;7.93;64.83
67517;BME280;68821;59.134;37.894;2024-03-23T13:18:50;97669.00;;;7.78;65.30
67517;BME280;68821;59.134;37.894;2024-03-23T13:21:17;97678.31;;;7.82;66.12
67517;BME280;68821;59.134;37.894;2024-03-23T13:23:46;97680.75;;;7.90;66.02
67517;BME280;68821;59.134;37.894;2024-03-23T13:26:13;97671.31;;;7.94;66.11
67517;BME280;68821;59.134;37.894;2024-03-23T13:28:40;97652.91;;;8.23;66.20
67517;BME280;68821;59.134;37.894;2024-03-23T13:31:07;97658.19;;;8.63;65.86
67517;BME280;68821;59.134;37.894;2024-03-23T13:33:34;97652.22;;;9.44;66.80
67517;BME280;68821;59.134;37.894;2024-03-23T13:36:00;97661.91;;;10.39;63.92
67517;BME280;68821;59.134;37.894;2024-03-23T13:38:27;97664.72;;;10.30;62.53
67517;BME280;68821;59.134;37.894;2024-03-23T13:40:58;97657.13;;;9.91;62.32
67517;BME280;68821;59.134;37.894;2024-03-23T13:43:26;97666.94;;;10.09;63.09
67517;BME280;68821;59.134;37.894;2024-03-23T13:45:59;97666.78;;;10.81;62.43
67517;BME280;68821;59.134;37.894;2024-03-23T13:48:27;97684.44;;;10.93;61.75
67517;BME280;68821;59.134;37.894;2024-03-23T13:51:00;97673.47;;;11.16;61.90
67517;BME280;68821;59.134;37.894;2024-03-23T13:53:26;97675.00;;;11.52;61.30
67517;BME280;68821;59.134;37.894;2024-03-23T13:55:53;97675.38;;;11.39;60.14
67517;BME280;68821;59.134;37.894;2024-03-23T13:58:19;97680.31;;;10.87;60.88
67517;BME280;68821;59.134;37.894;2024-03-23T14:00:46;97677.94;;;10.80;61.59
67517;BME280;68821;59.134;37.894;2024-03-23T14:03:13;97670.22;;;11.67;61.72